EGPE/INV METAR and TAF weather

Enter ICAO airport designator
Station Type Date Time Source
EGPE METAR 2019/10/20 18:50 UTC NOAA

EGPE 201850Z 33006KT 9999 FEW045 06/04 Q1023


Station Type Date Time Source
EGPE Decoded METAR 2019/10/20 18:50 UTC NOAA

Inverness / Dalcross, United Kingdom (EGPE) 57-32N 004-03W 0M
Oct 20, 2019 - 02:50 PM EDT / 2019.10.20 1850 UTC
Wind: from the NNW (330 degrees) at 7 MPH (6 KT):0
Visibility: greater than 7 mile(s):0
Sky conditions: mostly clear
Temperature: 42 F (6 C)
Dew Point: 39 F (4 C)
Relative Humidity: 86%
Pressure (altimeter): 30.21 in. Hg (1023 hPa)
ob: EGPE 201850Z 33006KT 9999 FEW045 06/04 Q1023
cycle: 19

Station Type Date Time Source
EGPE TAF UTC NOAA

Error!

Example: see airport list